Terminal Aerodrome Forecast
Issued by NWS Mt. Holly, NJ

Home | Current Version | Previous Version | Text Only | Print | Product List | Glossary On
Versions: 1 2 3 4 5 6 7 8 9 10 11 12 13 14 15 16 17 18 19
744
FTUS41 KPHI 270522
TAFRDG
TAF
KRDG 270522Z 2706/2806 VRB03KT P6SM OVC025
      TEMPO 2706/2708 BKN015
     FM270800 VRB03KT 3SM BR OVC010
     FM271400 15004KT 5SM BR BKN025
     FM271600 16008KT P6SM BKN035=

USA.gov is the U.S. government's official web portal to all federal, state and local government web resources and services.